createdAt,value
2019-03-23T00:00:32.645Z,99.99
2019-03-23T00:01:32.637Z,99.99
2019-03-23T00:02:32.619Z,99.99
2019-03-23T00:03:32.637Z,99.99
2019-03-23T00:04:32.758Z,99.99
2019-03-23T00:05:32.616Z,99.99
2019-03-23T00:06:32.579Z,99.99
2019-03-23T00:07:32.574Z,99.99
2019-03-23T00:08:32.560Z,99.99
2019-03-23T00:09:32.571Z,99.99
2019-03-23T00:10:32.533Z,99.99
2019-03-23T00:11:32.523Z,99.99
2019-03-23T00:12:32.510Z,99.99
2019-03-23T00:13:32.509Z,99.99
2019-03-23T00:14:32.591Z,99.99
2019-03-23T00:15:32.496Z,99.99
2019-03-23T00:16:32.471Z,99.99
2019-03-23T00:17:32.463Z,99.99
2019-03-23T00:18:32.455Z,99.99
2019-03-23T00:19:32.452Z,99.99
2019-03-23T00:20:32.427Z,99.99
2019-03-23T00:21:32.406Z,99.94
2019-03-23T00:22:32.398Z,99.99
2019-03-23T00:23:32.385Z,99.99
2019-03-23T00:24:32.417Z,99.99
2019-03-23T00:25:32.361Z,99.99
2019-03-23T00:26:32.366Z,99.94
2019-03-23T00:27:32.519Z,99.99
2019-03-23T00:28:32.339Z,99.99
2019-03-23T00:29:32.341Z,99.84
2019-03-23T00:30:32.319Z,99.32
2019-03-23T00:31:32.297Z,99.84
2019-03-23T00:32:32.301Z,99.43
2019-03-23T00:33:32.276Z,99.32
2019-03-23T00:34:32.280Z,98.80
2019-03-23T00:35:32.249Z,98.50
2019-03-23T00:36:40.998Z,97.82
2019-03-23T00:37:33.226Z,97.51
2019-03-23T00:38:32.231Z,96.58
2019-03-23T00:39:32.238Z,96.99
2019-03-23T00:40:32.194Z,96.27
2019-03-23T00:41:32.195Z,96.99
2019-03-23T00:42:32.178Z,96.99
2019-03-23T00:43:32.178Z,96.48
2019-03-23T00:44:32.178Z,96.99
2019-03-23T00:45:32.156Z,96.89
2019-03-23T00:46:32.127Z,96.73
2019-03-23T00:47:32.140Z,96.58
2019-03-23T00:48:32.108Z,96.37
2019-03-23T00:49:32.126Z,96.37
2019-03-23T00:50:32.094Z,97.25
2019-03-23T00:51:32.070Z,96.94
2019-03-23T00:52:32.069Z,97.45
2019-03-23T00:53:32.056Z,97.45
2019-03-23T00:54:32.047Z,97.82
2019-03-23T00:55:32.054Z,98.18
2019-03-23T00:56:32.010Z,99.16
2019-03-23T00:57:32.003Z,98.85
2019-03-23T00:58:32.001Z,99.06
2019-03-23T00:59:31.982Z,98.18
2019-03-23T01:00:31.993Z,98.13
2019-03-23T01:01:31.984Z,98.38
2019-03-23T01:02:31.947Z,97.97
2019-03-23T01:03:31.936Z,98.49
2019-03-23T01:04:31.940Z,99.26
2019-03-23T01:05:32.017Z,99.16
2019-03-23T01:06:31.916Z,98.90
2019-03-23T01:07:31.895Z,99.10
2019-03-23T01:08:31.884Z,99.37
2019-03-23T01:09:31.868Z,98.28
2019-03-23T01:10:31.879Z,97.55
2019-03-23T01:11:31.865Z,96.94
2019-03-23T01:12:31.848Z,96.73
2019-03-23T01:13:31.870Z,96.42
2019-03-23T01:14:31.813Z,96.11
2019-03-23T01:15:32.073Z,95.59
2019-03-23T01:16:31.807Z,95.02
2019-03-23T01:17:31.797Z,95.59
2019-03-23T01:18:31.762Z,94.81
2019-03-23T01:19:31.771Z,94.40
2019-03-23T01:20:31.770Z,94.50
2019-03-23T01:21:31.735Z,94.19
2019-03-23T01:22:31.723Z,94.29
2019-03-23T01:23:31.726Z,94.40
2019-03-23T01:24:31.706Z,94.34
2019-03-23T01:25:31.709Z,94.65
2019-03-23T01:26:31.676Z,94.54
2019-03-23T01:27:31.679Z,94.44
2019-03-23T01:28:31.660Z,94.54
2019-03-23T01:29:31.664Z,94.85
2019-03-23T01:30:31.661Z,94.54
2019-03-23T01:31:31.650Z,94.44
2019-03-23T01:32:31.609Z,94.54
2019-03-23T01:33:31.594Z,94.54
2019-03-23T01:34:31.723Z,94.69
2019-03-23T01:35:31.603Z,95.52
2019-03-23T01:36:31.568Z,95.37
2019-03-23T01:37:31.549Z,95.21
2019-03-23T01:38:31.545Z,95.42
2019-03-23T01:39:31.535Z,95.10
2019-03-23T01:40:31.550Z,94.79
2019-03-23T01:41:31.507Z,94.28
2019-03-23T01:42:31.501Z,94.59
2019-03-23T01:43:31.490Z,94.59
2019-03-23T01:44:31.479Z,94.48
2019-03-23T01:45:31.487Z,94.07
2019-03-23T01:46:31.463Z,94.43
2019-03-23T01:47:31.444Z,94.01
2019-03-23T01:48:31.430Z,93.70
2019-03-23T01:49:31.415Z,94.01
2019-03-23T01:50:31.442Z,94.12
2019-03-23T01:51:31.399Z,94.43
2019-03-23T01:52:31.403Z,94.73
2019-03-23T01:53:31.377Z,94.22
2019-03-23T01:54:31.363Z,94.94
2019-03-23T01:55:31.563Z,94.73
2019-03-23T01:56:31.338Z,94.84
2019-03-23T01:57:31.339Z,95.36
2019-03-23T01:58:31.316Z,95.15
2019-03-23T01:59:31.302Z,95.87
2019-03-23T02:00:31.317Z,96.19
2019-03-23T02:01:31.288Z,96.08
2019-03-23T02:02:31.272Z,96.14
2019-03-23T02:03:31.273Z,96.76
2019-03-23T02:04:31.244Z,96.91
2019-03-23T02:05:31.293Z,96.29
2019-03-23T02:06:31.229Z,96.08
2019-03-23T02:07:31.238Z,95.98
2019-03-23T02:08:31.208Z,96.14
2019-03-23T02:09:31.217Z,96.24
2019-03-23T02:10:31.254Z,96.24
2019-03-23T02:11:31.172Z,95.94
2019-03-23T02:12:31.162Z,96.14
2019-03-23T02:13:31.145Z,96.24
2019-03-23T02:14:31.139Z,96.76
2019-03-23T02:15:31.158Z,97.17
2019-03-23T02:16:31.114Z,96.66
2019-03-23T02:17:31.106Z,97.59
2019-03-23T02:18:31.099Z,97.07
2019-03-23T02:19:31.083Z,97.17
2019-03-23T02:20:31.087Z,98.10
2019-03-23T02:21:31.148Z,98.06
2019-03-23T02:22:31.048Z,96.92
2019-03-23T02:23:31.039Z,97.54
2019-03-23T02:24:31.035Z,96.34
2019-03-23T02:25:31.042Z,96.20
2019-03-23T02:26:31.053Z,96.09
2019-03-23T02:27:30.996Z,96.30
2019-03-23T02:28:30.981Z,95.89
2019-03-23T02:29:30.972Z,95.68
2019-03-23T02:30:31.010Z,95.89
2019-03-23T02:31:32.061Z,95.37
2019-03-23T02:32:31.023Z,95.27
2019-03-23T02:33:30.924Z,95.22
2019-03-23T02:34:30.919Z,95.22
2019-03-23T02:35:30.945Z,95.22
2019-03-23T02:36:30.914Z,94.50
2019-03-23T02:37:30.884Z,94.50
2019-03-23T02:38:30.870Z,95.43
2019-03-23T02:39:30.870Z,95.53
2019-03-23T02:40:30.849Z,95.02
2019-03-23T02:41:30.869Z,95.84
2019-03-23T02:42:30.822Z,95.70
2019-03-23T02:43:30.839Z,95.80
2019-03-23T02:44:30.813Z,95.80
2019-03-23T02:45:30.823Z,95.70
2019-03-23T02:46:30.816Z,96.52
2019-03-23T02:47:30.769Z,96.73
2019-03-23T02:48:30.761Z,96.48
2019-03-23T02:49:30.753Z,96.89
2019-03-23T02:50:30.773Z,97.25
2019-03-23T02:51:30.789Z,97.97
2019-03-23T02:52:30.729Z,97.97
2019-03-23T02:53:30.708Z,98.02
2019-03-23T02:54:30.686Z,98.75
2019-03-23T02:55:30.680Z,98.96
2019-03-23T02:56:30.695Z,98.85
2019-03-23T02:57:30.666Z,98.96
2019-03-23T02:58:30.643Z,99.06
2019-03-23T02:59:30.638Z,98.75
2019-03-23T03:00:30.629Z,98.85
2019-03-23T03:01:30.849Z,99.26
2019-03-23T03:02:30.602Z,98.75
2019-03-23T03:03:30.604Z,99.16
2019-03-23T03:04:30.577Z,98.75
2019-03-23T03:05:30.569Z,99.26
2019-03-23T03:06:30.571Z,99.06
2019-03-23T03:07:41.171Z,99.16
2019-03-23T03:08:31.528Z,99.37
2019-03-23T03:09:30.527Z,99.26
2019-03-23T03:10:30.515Z,99.06
2019-03-23T03:11:30.541Z,99.26
2019-03-23T03:12:30.497Z,99.47
2019-03-23T03:13:30.481Z,99.68
2019-03-23T03:14:30.621Z,99.68
2019-03-23T03:15:30.454Z,99.78
2019-03-23T03:16:30.441Z,99.68
2019-03-23T03:17:30.449Z,99.57
2019-03-23T03:18:30.426Z,99.68
2019-03-23T03:19:30.408Z,99.88
2019-03-23T03:20:30.408Z,99.99
2019-03-23T03:21:30.382Z,99.99
2019-03-23T03:22:30.423Z,99.99
2019-03-23T03:23:30.395Z,99.99
2019-03-23T03:24:30.348Z,99.99
2019-03-23T03:25:30.343Z,99.99
2019-03-23T03:26:30.340Z,99.99
2019-03-23T03:27:30.338Z,99.99
2019-03-23T03:28:30.304Z,99.68
2019-03-23T03:29:30.299Z,99.68
2019-03-23T03:30:30.285Z,99.37
2019-03-23T03:31:30.284Z,99.78
2019-03-23T03:32:30.313Z,99.78
2019-03-23T03:33:30.261Z,99.99
2019-03-23T03:34:30.245Z,99.99
2019-03-23T03:35:30.230Z,99.99
2019-03-23T03:36:30.378Z,99.99
2019-03-23T03:37:30.255Z,99.99
2019-03-23T03:38:30.199Z,99.99
2019-03-23T03:39:30.186Z,99.99
2019-03-23T03:40:30.180Z,99.99
2019-03-23T03:41:30.176Z,99.99
2019-03-23T03:42:30.180Z,99.99
2019-03-23T03:43:30.158Z,99.99
2019-03-23T03:44:30.231Z,99.99
2019-03-23T03:45:30.141Z,99.99
2019-03-23T03:46:30.123Z,99.99
2019-03-23T03:47:30.134Z,99.99
2019-03-23T03:48:30.083Z,99.99
2019-03-23T03:49:30.070Z,99.99
2019-03-23T03:50:30.064Z,99.99
2019-03-23T03:51:30.056Z,99.99
2019-03-23T03:52:30.038Z,99.99
2019-03-23T03:53:30.048Z,99.99
2019-03-23T03:54:30.008Z,99.99
2019-03-23T03:55:30.004Z,99.99
2019-03-23T03:56:29.999Z,99.99
2019-03-23T03:57:29.980Z,99.99
2019-03-23T03:58:29.986Z,99.99
2019-03-23T03:59:29.960Z,99.99
2019-03-23T04:00:29.952Z,99.99
2019-03-23T04:01:29.931Z,99.99
2019-03-23T04:02:29.927Z,99.99
2019-03-23T04:03:29.934Z,99.99
2019-03-23T04:04:29.900Z,99.99
2019-03-23T04:05:29.893Z,99.99
2019-03-23T04:06:29.877Z,99.99
2019-03-23T04:07:29.868Z,99.99
2019-03-23T04:08:29.981Z,99.99
2019-03-23T04:09:29.847Z,99.99
2019-03-23T04:10:29.829Z,99.99
2019-03-23T04:11:29.830Z,99.99
2019-03-23T04:12:29.807Z,99.99
2019-03-23T04:13:29.818Z,99.99
2019-03-23T04:14:29.790Z,99.99
2019-03-23T04:15:29.783Z,99.99
2019-03-23T04:16:29.768Z,99.99
2019-03-23T04:17:29.768Z,99.99
2019-03-23T04:18:29.770Z,99.99
2019-03-23T04:19:29.730Z,99.99
2019-03-23T04:20:29.731Z,99.99
2019-03-23T04:21:29.723Z,99.99
2019-03-23T04:22:29.719Z,99.99
2019-03-23T04:23:29.714Z,99.99
2019-03-23T04:24:29.675Z,99.99
2019-03-23T04:25:29.679Z,99.99
2019-03-23T04:26:29.689Z,99.99
2019-03-23T04:27:29.647Z,99.99
2019-03-23T04:28:29.665Z,99.99
2019-03-23T04:29:29.615Z,99.99
2019-03-23T04:30:29.615Z,99.99
2019-03-23T04:31:29.597Z,99.99
2019-03-23T04:32:29.587Z,99.99
2019-03-23T04:33:29.600Z,99.99
2019-03-23T04:34:29.570Z,99.99
2019-03-23T04:35:29.554Z,99.99
2019-03-23T04:36:29.554Z,99.99
2019-03-23T04:37:29.533Z,99.99
2019-03-23T04:38:29.537Z,99.99
2019-03-23T04:39:29.533Z,99.99
2019-03-23T04:40:29.509Z,99.99
2019-03-23T04:41:29.497Z,99.99
2019-03-23T04:42:29.486Z,99.99
2019-03-23T04:43:29.480Z,99.99
2019-03-23T04:44:29.450Z,99.99
2019-03-23T04:45:29.438Z,99.99
2019-03-23T04:46:29.428Z,99.99
2019-03-23T04:47:29.420Z,99.99
2019-03-23T04:48:29.426Z,99.99
2019-03-23T04:49:29.398Z,99.99
2019-03-23T04:50:29.391Z,99.99
2019-03-23T04:51:29.372Z,99.99
2019-03-23T04:52:29.362Z,99.99
2019-03-23T04:53:29.374Z,99.99
2019-03-23T04:54:29.341Z,99.99
2019-03-23T04:55:29.329Z,99.99
2019-03-23T04:56:29.316Z,99.99
2019-03-23T04:57:29.306Z,99.99
2019-03-23T04:58:29.314Z,99.99
2019-03-23T04:59:29.286Z,99.99
2019-03-23T05:00:29.272Z,99.99
2019-03-23T05:01:29.280Z,99.99
2019-03-23T05:02:29.253Z,99.99
2019-03-23T05:03:29.261Z,99.99
2019-03-23T05:04:29.233Z,99.99
2019-03-23T05:05:29.234Z,99.99
2019-03-23T05:06:29.209Z,99.99
2019-03-23T05:07:29.193Z,99.99
2019-03-23T05:08:33.507Z,99.99
2019-03-23T05:09:29.168Z,99.99
2019-03-23T05:10:29.157Z,99.99
2019-03-23T05:11:29.150Z,99.99
2019-03-23T05:12:29.140Z,99.99
2019-03-23T05:13:29.122Z,99.99
2019-03-23T05:14:29.148Z,99.99
2019-03-23T05:15:29.112Z,99.99
2019-03-23T05:16:29.092Z,99.99
2019-03-23T05:17:29.083Z,99.99
2019-03-23T05:18:29.073Z,99.99
2019-03-23T05:19:29.081Z,99.99
2019-03-23T05:20:29.050Z,99.99
2019-03-23T05:21:29.048Z,99.99
2019-03-23T05:22:29.033Z,99.99
2019-03-23T05:23:29.019Z,99.99
2019-03-23T05:24:29.023Z,99.99
2019-03-23T05:25:28.992Z,99.99
2019-03-23T05:26:28.978Z,99.99
2019-03-23T05:27:28.968Z,99.99
2019-03-23T05:28:28.958Z,99.99
2019-03-23T05:29:28.967Z,99.99
2019-03-23T05:30:28.938Z,99.99
2019-03-23T05:31:28.934Z,99.99
2019-03-23T05:32:28.918Z,99.99
2019-03-23T05:33:28.904Z,99.99
2019-03-23T05:34:28.918Z,99.99
2019-03-23T05:35:28.883Z,99.99
2019-03-23T05:36:28.864Z,99.99
2019-03-23T05:37:28.854Z,99.99
2019-03-23T05:38:28.857Z,99.99
2019-03-23T05:39:28.859Z,99.99
2019-03-23T05:40:28.830Z,99.99
2019-03-23T05:41:30.876Z,99.99
2019-03-23T05:42:28.802Z,99.99
2019-03-23T05:43:28.790Z,99.99
2019-03-23T05:44:28.799Z,99.99
2019-03-23T05:45:28.772Z,99.99
2019-03-23T05:46:28.758Z,99.99
2019-03-23T05:47:28.744Z,99.99
2019-03-23T05:48:28.741Z,99.99
2019-03-23T05:49:28.746Z,99.99
2019-03-23T05:50:28.716Z,99.99
2019-03-23T05:51:28.700Z,99.99
2019-03-23T05:52:28.703Z,99.47
2019-03-23T05:53:28.672Z,99.68
2019-03-23T05:54:28.685Z,99.72
2019-03-23T05:55:28.655Z,99.68
2019-03-23T05:56:28.657Z,99.26
2019-03-23T05:57:28.634Z,99.16
2019-03-23T05:58:28.627Z,98.75
2019-03-23T05:59:28.643Z,99.16
2019-03-23T06:00:28.598Z,99.06
2019-03-23T06:01:28.584Z,98.85
2019-03-23T06:02:28.572Z,99.06
2019-03-23T06:03:28.566Z,98.65
2019-03-23T06:04:28.554Z,99.16
2019-03-23T06:05:28.568Z,98.85
2019-03-23T06:06:28.535Z,97.92
2019-03-23T06:07:28.524Z,97.61
2019-03-23T06:08:28.506Z,98.02
2019-03-23T06:09:28.496Z,97.51
2019-03-23T06:10:28.612Z,97.61
2019-03-23T06:11:28.474Z,97.51
2019-03-23T06:12:28.467Z,97.72
2019-03-23T06:13:28.461Z,98.02
2019-03-23T06:14:28.436Z,97.82
2019-03-23T06:15:28.444Z,98.02
2019-03-23T06:16:28.422Z,98.02
2019-03-23T06:17:28.406Z,97.92
2019-03-23T06:18:28.396Z,98.02
2019-03-23T06:19:28.396Z,97.61
2019-03-23T06:20:28.382Z,97.82
2019-03-23T06:21:28.364Z,97.61
2019-03-23T06:22:28.352Z,97.72
2019-03-23T06:23:28.340Z,97.72
2019-03-23T06:24:28.334Z,96.99
2019-03-23T06:25:28.338Z,96.99
2019-03-23T06:26:28.305Z,97.20
2019-03-23T06:27:28.298Z,96.89
2019-03-23T06:28:28.278Z,96.95
2019-03-23T06:29:28.276Z,96.74
2019-03-23T06:30:28.292Z,96.79
2019-03-23T06:31:28.248Z,96.17
2019-03-23T06:32:28.248Z,96.27
2019-03-23T06:33:28.222Z,95.76
2019-03-23T06:34:28.220Z,95.34
2019-03-23T06:35:28.226Z,95.71
2019-03-23T06:36:28.214Z,95.71
2019-03-23T06:37:28.182Z,94.68
2019-03-23T06:38:28.170Z,95.30
2019-03-23T06:39:28.172Z,95.20
2019-03-23T06:40:28.184Z,95.20
2019-03-23T06:41:28.136Z,95.20
2019-03-23T06:42:28.135Z,95.36
2019-03-23T06:43:28.113Z,95.15
2019-03-23T06:44:28.113Z,94.68
2019-03-23T06:45:28.119Z,94.12
2019-03-23T06:46:28.100Z,94.02
2019-03-23T06:47:28.085Z,94.43
2019-03-23T06:48:28.058Z,93.91
2019-03-23T06:49:28.069Z,94.59
2019-03-23T06:50:28.040Z,94.18
2019-03-23T06:51:28.065Z,94.28
2019-03-23T06:52:28.019Z,94.59
2019-03-23T06:53:28.004Z,95.21
2019-03-23T06:54:28.074Z,94.70
2019-03-23T06:55:28.007Z,94.49
2019-03-23T06:56:28.004Z,93.87
2019-03-23T06:57:27.960Z,94.34
2019-03-23T06:58:27.962Z,94.34
2019-03-23T06:59:28.005Z,93.83
2019-03-23T07:00:27.966Z,94.03
2019-03-23T07:01:27.931Z,93.31
2019-03-23T07:02:27.903Z,93.01
2019-03-23T07:03:27.904Z,94.13
2019-03-23T07:04:27.952Z,93.21
2019-03-23T07:05:27.862Z,93.37
2019-03-23T07:06:27.867Z,93.68
2019-03-23T07:07:27.853Z,92.86
2019-03-23T07:08:32.142Z,92.44
2019-03-23T07:09:27.830Z,92.86
2019-03-23T07:10:27.806Z,93.16
2019-03-23T07:11:27.898Z,92.55
2019-03-23T07:12:27.796Z,92.55
2019-03-23T07:13:27.794Z,92.24
2019-03-23T07:14:27.762Z,92.40
2019-03-23T07:15:27.750Z,92.86
2019-03-23T07:16:27.758Z,92.50
2019-03-23T07:17:27.728Z,92.44
2019-03-23T07:18:27.726Z,92.30
2019-03-23T07:19:27.703Z,92.30
2019-03-23T07:20:27.696Z,92.40
2019-03-23T07:21:27.702Z,92.50
2019-03-23T07:22:27.685Z,92.46
2019-03-23T07:23:27.664Z,93.08
2019-03-23T07:24:27.657Z,92.87
2019-03-23T07:25:27.636Z,92.46
2019-03-23T07:26:27.646Z,92.42
2019-03-23T07:27:27.620Z,92.52
2019-03-23T07:28:27.603Z,92.01
2019-03-23T07:29:27.607Z,91.76
2019-03-23T07:30:27.606Z,91.04
2019-03-23T07:31:27.605Z,91.25
2019-03-23T07:32:27.561Z,91.25
2019-03-23T07:33:27.550Z,91.35
2019-03-23T07:34:27.538Z,91.31
2019-03-23T07:35:27.543Z,91.10
2019-03-23T07:36:27.544Z,90.59
2019-03-23T07:37:27.508Z,90.55
2019-03-23T07:38:27.490Z,90.95
2019-03-23T07:39:30.361Z,90.03
2019-03-23T07:40:27.473Z,90.50
2019-03-23T07:41:27.487Z,90.91
2019-03-23T07:42:27.448Z,90.09
2019-03-23T07:43:27.436Z,90.30
2019-03-23T07:44:27.424Z,90.50
2019-03-23T07:45:27.415Z,90.16
2019-03-23T07:46:27.420Z,90.36
2019-03-23T07:47:27.403Z,89.95
2019-03-23T07:48:28.531Z,89.90
2019-03-23T07:49:27.373Z,89.09
2019-03-23T07:50:27.367Z,88.78
2019-03-23T07:51:27.375Z,88.94
2019-03-23T07:52:27.346Z,88.78
2019-03-23T07:53:27.322Z,88.94
2019-03-23T07:54:27.320Z,88.33
2019-03-23T07:55:27.302Z,88.08
2019-03-23T07:56:27.308Z,88.29
2019-03-23T07:57:27.278Z,88.29
2019-03-23T07:58:27.291Z,87.88
2019-03-23T07:59:27.254Z,88.29
2019-03-23T08:00:27.243Z,87.84
2019-03-23T08:01:27.255Z,87.94
2019-03-23T08:02:27.233Z,87.73
2019-03-23T08:03:27.267Z,88.14
2019-03-23T08:04:27.212Z,87.08
2019-03-23T08:05:27.193Z,87.38
2019-03-23T08:06:27.194Z,86.57
2019-03-23T08:07:27.166Z,86.05
2019-03-23T08:08:27.156Z,86.16
2019-03-23T08:09:37.155Z,86.36
2019-03-23T08:10:28.147Z,86.43
2019-03-23T08:11:27.139Z,85.88
2019-03-23T08:12:27.109Z,86.08
2019-03-23T08:13:27.688Z,84.41
2019-03-23T08:14:27.091Z,84.61
2019-03-23T08:15:27.086Z,84.20
2019-03-23T08:16:27.128Z,84.57
2019-03-23T08:17:27.057Z,84.71
2019-03-23T08:18:27.050Z,83.44
2019-03-23T08:19:27.039Z,83.44
2019-03-23T08:20:27.015Z,83.34
2019-03-23T08:21:27.027Z,83.40
2019-03-23T08:22:27.000Z,83.20
2019-03-23T08:23:26.990Z,82.59
2019-03-23T08:24:26.982Z,82.69
2019-03-23T08:25:26.973Z,82.69
2019-03-23T08:26:26.980Z,82.04
2019-03-23T08:27:26.969Z,82.24
2019-03-23T08:28:26.934Z,82.04
2019-03-23T08:29:26.914Z,82.00
2019-03-23T08:30:26.908Z,81.70
2019-03-23T08:31:26.893Z,81.90
2019-03-23T08:32:26.904Z,82.10
2019-03-23T08:33:26.874Z,81.56
2019-03-23T08:34:26.881Z,80.23
2019-03-23T08:35:26.849Z,81.25
2019-03-23T08:36:26.843Z,80.43
2019-03-23T08:37:26.851Z,80.33
2019-03-23T08:38:26.824Z,79.58
2019-03-23T08:39:26.812Z,78.87
2019-03-23T08:40:26.793Z,78.87
2019-03-23T08:41:26.798Z,78.16
2019-03-23T08:42:26.794Z,79.17
2019-03-23T08:43:26.759Z,77.91
2019-03-23T08:44:26.754Z,77.81
2019-03-23T08:45:26.734Z,77.81
2019-03-23T08:46:26.724Z,77.37
2019-03-23T08:47:26.736Z,77.57
2019-03-23T08:48:26.716Z,77.47
2019-03-23T08:49:28.598Z,76.72
2019-03-23T08:50:26.697Z,77.23
2019-03-23T08:51:26.723Z,75.91
2019-03-23T08:52:28.890Z,75.57
2019-03-23T08:53:26.649Z,75.26
2019-03-23T08:54:26.633Z,74.76
2019-03-23T08:55:26.630Z,75.06
2019-03-23T08:56:26.614Z,75.06
2019-03-23T08:57:26.638Z,75.06
2019-03-23T08:58:26.589Z,74.76
2019-03-23T08:59:26.578Z,75.02
2019-03-23T09:00:26.587Z,74.82
2019-03-23T09:01:26.562Z,74.72
2019-03-23T09:02:26.553Z,73.80
2019-03-23T09:03:26.550Z,73.39
2019-03-23T09:04:26.518Z,73.16
2019-03-23T09:05:26.510Z,73.57
2019-03-23T09:06:26.546Z,73.16
2019-03-23T09:07:26.497Z,73.36
2019-03-23T09:08:26.494Z,72.75
2019-03-23T09:09:26.489Z,72.55
2019-03-23T09:10:26.452Z,72.62
2019-03-23T09:11:26.437Z,72.31
2019-03-23T09:12:26.432Z,71.50
2019-03-23T09:13:26.441Z,72.11
2019-03-23T09:14:26.415Z,72.01
2019-03-23T09:15:26.391Z,71.50
2019-03-23T09:16:26.400Z,71.70
2019-03-23T09:17:26.371Z,71.91
2019-03-23T09:18:26.384Z,71.57
2019-03-23T09:19:26.351Z,71.06
2019-03-23T09:20:26.340Z,70.86
2019-03-23T09:21:26.325Z,71.09
2019-03-23T09:22:26.317Z,71.16
2019-03-23T09:23:26.326Z,71.36
2019-03-23T09:24:26.310Z,70.35
2019-03-23T09:25:26.282Z,69.95
2019-03-23T09:26:26.269Z,69.95
2019-03-23T09:27:26.258Z,70.35
2019-03-23T09:28:26.273Z,69.60
2019-03-23T09:29:26.239Z,69.60
2019-03-23T09:30:26.224Z,70.01
2019-03-23T09:31:26.210Z,69.57
2019-03-23T09:32:26.198Z,68.76
2019-03-23T09:33:26.230Z,69.07
2019-03-23T09:34:26.182Z,69.07
2019-03-23T09:35:26.176Z,69.17
2019-03-23T09:36:26.156Z,68.63
2019-03-23T09:37:26.150Z,68.43
2019-03-23T09:38:26.174Z,67.82
2019-03-23T09:39:26.122Z,68.12
2019-03-23T09:40:26.120Z,68.12
2019-03-23T09:41:26.112Z,67.92
2019-03-23T09:42:26.086Z,68.09
2019-03-23T09:43:26.099Z,67.51
2019-03-23T09:44:26.075Z,67.79
2019-03-23T09:45:26.055Z,67.18
2019-03-23T09:46:26.043Z,67.89
2019-03-23T09:47:26.038Z,67.76
2019-03-23T09:48:26.051Z,66.97
2019-03-23T09:49:26.022Z,67.35
2019-03-23T09:50:26.005Z,67.55
2019-03-23T09:51:26.221Z,66.64
2019-03-23T09:52:25.985Z,65.80
2019-03-23T09:53:25.968Z,64.82
2019-03-23T09:54:25.980Z,65.32
2019-03-23T09:55:25.951Z,64.51
2019-03-23T09:56:25.940Z,64.82
2019-03-23T09:57:25.921Z,64.48
2019-03-23T09:58:25.912Z,63.98
2019-03-23T09:59:25.921Z,63.34
2019-03-23T10:00:25.893Z,62.60
2019-03-23T10:01:25.900Z,62.64
2019-03-23T10:02:25.861Z,60.60
2019-03-23T10:03:25.857Z,59.58
2019-03-23T10:04:25.865Z,59.35
2019-03-23T10:05:25.830Z,59.22
2019-03-23T10:06:25.813Z,57.58
2019-03-23T10:07:25.809Z,57.25
2019-03-23T10:08:25.820Z,56.95
2019-03-23T10:09:25.832Z,56.42
2019-03-23T10:10:25.802Z,56.52
2019-03-23T10:11:25.761Z,55.56
2019-03-23T10:12:25.811Z,54.93
2019-03-23T10:13:25.748Z,53.60
2019-03-23T10:14:25.775Z,53.57
2019-03-23T10:15:25.734Z,52.62
2019-03-23T10:16:25.703Z,51.79
2019-03-23T10:17:25.690Z,51.69
2019-03-23T10:18:25.683Z,51.37
2019-03-23T10:19:25.694Z,50.34
2019-03-23T10:20:26.330Z,49.41
2019-03-23T10:21:25.767Z,48.28
2019-03-23T10:22:25.639Z,48.58
2019-03-23T10:23:25.628Z,49.19
2019-03-23T10:24:25.748Z,48.28
2019-03-23T10:25:25.600Z,47.46
2019-03-23T10:26:25.593Z,47.44
2019-03-23T10:27:25.597Z,46.74
2019-03-23T10:28:25.567Z,46.62
2019-03-23T10:29:25.558Z,46.37
2019-03-23T10:30:25.666Z,45.15
2019-03-23T10:31:25.532Z,45.23
2019-03-23T10:32:25.530Z,44.19
2019-03-23T10:33:25.652Z,42.85
2019-03-23T10:34:25.503Z,42.55
2019-03-23T10:35:25.522Z,43.03
2019-03-23T10:36:25.488Z,41.33
2019-03-23T10:37:26.138Z,41.44
2019-03-23T10:38:25.470Z,42.13
2019-03-23T10:39:25.476Z,41.61
2019-03-23T10:40:32.335Z,41.24
2019-03-23T10:41:26.423Z,41.24
2019-03-23T10:42:25.414Z,41.53
2019-03-23T10:43:25.408Z,41.61
2019-03-23T10:44:25.415Z,41.22
2019-03-23T10:45:25.589Z,41.75
2019-03-23T10:46:25.368Z,41.14
2019-03-23T10:47:25.452Z,41.93
2019-03-23T10:48:25.352Z,41.33
2019-03-23T10:49:25.352Z,40.52
2019-03-23T10:50:25.342Z,40.82
2019-03-23T10:51:25.408Z,40.82
2019-03-23T10:52:25.466Z,39.78
2019-03-23T10:53:25.294Z,40.34
2019-03-23T10:54:25.285Z,38.22
2019-03-23T10:55:25.273Z,37.43
2019-03-23T10:56:25.287Z,37.45
2019-03-23T10:57:25.251Z,38.26
2019-03-23T10:58:25.280Z,38.35
2019-03-23T10:59:25.238Z,37.56
2019-03-23T11:00:25.348Z,38.14
2019-03-23T11:01:25.225Z,37.43
2019-03-23T11:02:25.196Z,37.92
2019-03-23T11:03:25.196Z,37.11
2019-03-23T11:04:25.195Z,37.17
2019-03-23T11:05:25.170Z,36.16
2019-03-23T11:06:25.186Z,35.65
2019-03-23T11:07:25.156Z,35.46
2019-03-23T11:08:25.177Z,34.86
2019-03-23T11:09:25.123Z,34.74
2019-03-23T11:10:25.122Z,35.19
2019-03-23T11:11:25.131Z,36.32
2019-03-23T11:12:25.113Z,37.24
2019-03-23T11:13:25.084Z,38.12
2019-03-23T11:14:25.085Z,36.91
2019-03-23T11:15:25.068Z,36.00
2019-03-23T11:16:25.062Z,35.78
2019-03-23T11:17:25.196Z,35.77
2019-03-23T11:18:25.023Z,35.44
2019-03-23T11:19:25.026Z,34.20
2019-03-23T11:20:25.008Z,32.59
2019-03-23T11:21:25.016Z,32.78
2019-03-23T11:22:25.007Z,32.90
2019-03-23T11:23:24.992Z,33.47
2019-03-23T11:24:24.989Z,33.08
2019-03-23T11:25:24.989Z,33.06
2019-03-23T11:26:24.951Z,33.39
2019-03-23T11:27:24.953Z,33.47
2019-03-23T11:28:24.928Z,32.07
2019-03-23T11:29:24.940Z,32.34
2019-03-23T11:30:24.906Z,31.72
2019-03-23T11:31:24.899Z,31.32
2019-03-23T11:32:24.909Z,31.13
2019-03-23T11:33:24.872Z,30.32
2019-03-23T11:34:24.865Z,30.06
2019-03-23T11:35:24.862Z,31.48
2019-03-23T11:36:24.847Z,33.00
2019-03-23T11:37:24.896Z,33.21
2019-03-23T11:38:24.835Z,33.42
2019-03-23T11:39:24.803Z,33.01
2019-03-23T11:40:24.798Z,33.51
2019-03-23T11:41:24.800Z,33.31
2019-03-23T11:42:24.802Z,34.10
2019-03-23T11:43:24.794Z,34.39
2019-03-23T11:44:24.755Z,34.59
2019-03-23T11:45:24.747Z,33.59
2019-03-23T11:46:24.736Z,32.97
2019-03-23T11:47:24.752Z,33.18
2019-03-23T11:48:24.736Z,33.51
2019-03-23T11:49:24.718Z,33.09
2019-03-23T11:50:24.699Z,34.06
2019-03-23T11:51:24.681Z,34.05
2019-03-23T11:52:24.679Z,32.98
2019-03-23T11:53:24.683Z,33.09
2019-03-23T11:54:24.662Z,34.01
2019-03-23T11:55:24.651Z,34.39
2019-03-23T11:56:24.635Z,34.28
2019-03-23T11:57:24.628Z,34.08
2019-03-23T11:58:24.633Z,33.28
2019-03-23T11:59:24.613Z,33.77
2019-03-23T12:00:24.598Z,34.00
2019-03-23T12:01:24.596Z,33.61
2019-03-23T12:02:24.570Z,33.51
2019-03-23T12:03:24.583Z,33.03
2019-03-23T12:04:25.256Z,34.46
2019-03-23T12:05:24.551Z,34.45
2019-03-23T12:06:24.579Z,34.36
2019-03-23T12:07:24.560Z,34.17
2019-03-23T12:08:24.536Z,33.54
2019-03-23T12:09:24.518Z,33.45
2019-03-23T12:10:24.481Z,35.82
2019-03-23T12:11:25.005Z,36.00
2019-03-23T12:12:24.471Z,36.18
2019-03-23T12:13:24.476Z,36.07
2019-03-23T12:14:24.449Z,36.40
2019-03-23T12:15:24.431Z,36.71
2019-03-23T12:16:24.420Z,36.79
2019-03-23T12:17:24.428Z,36.88
2019-03-23T12:18:24.425Z,36.68
2019-03-23T12:19:24.408Z,35.77
2019-03-23T12:20:24.386Z,35.88
2019-03-23T12:21:24.378Z,35.21
2019-03-23T12:22:24.366Z,36.11
2019-03-23T12:23:24.743Z,37.30
2019-03-23T12:24:24.345Z,36.91
2019-03-23T12:25:24.340Z,37.19
2019-03-23T12:26:24.321Z,37.19
2019-03-23T12:27:24.823Z,37.72
2019-03-23T12:28:24.326Z,39.63
2019-03-23T12:29:24.300Z,39.25
2019-03-23T12:30:24.283Z,40.44
2019-03-23T12:31:25.157Z,41.31
2019-03-23T12:32:24.272Z,42.77
2019-03-23T12:33:24.285Z,43.19
2019-03-23T12:34:24.261Z,43.07
2019-03-23T12:35:24.229Z,42.95
2019-03-23T12:36:24.225Z,43.91
2019-03-23T12:37:24.220Z,45.57
2019-03-23T12:38:24.213Z,46.84
2019-03-23T12:39:24.228Z,46.62
2019-03-23T12:40:24.182Z,46.57
2019-03-23T12:41:24.172Z,45.05
2019-03-23T12:42:24.164Z,44.11
2019-03-23T12:43:24.165Z,43.55
2019-03-23T12:44:24.139Z,45.29
2019-03-23T12:45:24.162Z,46.22
2019-03-23T12:46:24.119Z,45.62
2019-03-23T12:47:24.106Z,45.54
2019-03-23T12:48:24.100Z,46.00
2019-03-23T12:49:24.096Z,45.79
2019-03-23T12:50:24.088Z,43.98
2019-03-23T12:51:24.061Z,45.09
2019-03-23T12:52:24.055Z,45.21